sensor_id;sensor_type;location;lat;lon;timestamp;pressure;altitude;pressure_sealevel;temperature
67822;BMP180;54434;50.096;20.082;2023-03-19T00:00:10;99034.20;;;2.00
67822;BMP180;54434;50.096;20.082;2023-03-19T00:03:07;99033.00;;;1.90
67822;BMP180;54434;50.096;20.082;2023-03-19T00:05:50;99031.00;;;1.80
67822;BMP180;54434;50.096;20.082;2023-03-19T00:08:28;99035.20;;;1.80
67822;BMP180;54434;50.096;20.082;2023-03-19T00:11:10;99035.80;;;1.70
67822;BMP180;54434;50.096;20.082;2023-03-19T00:13:46;99029.60;;;1.70
67822;BMP180;54434;50.096;20.082;2023-03-19T00:16:23;99027.80;;;1.70
67822;BMP180;54434;50.096;20.082;2023-03-19T00:18:59;99031.00;;;1.66
67822;BMP180;54434;50.096;20.082;2023-03-19T00:21:36;99031.60;;;1.60
67822;BMP180;54434;50.096;20.082;2023-03-19T00:24:13;99034.60;;;1.60
67822;BMP180;54434;50.096;20.082;2023-03-19T00:26:51;99033.40;;;1.54
67822;BMP180;54434;50.096;20.082;2023-03-19T00:29:27;99028.80;;;1.50
67822;BMP180;54434;50.096;20.082;2023-03-19T00:32:05;99030.40;;;1.50
67822;BMP180;54434;50.096;20.082;2023-03-19T00:34:43;99032.40;;;1.40
67822;BMP180;54434;50.096;20.082;2023-03-19T00:37:19;99033.20;;;1.40
67822;BMP180;54434;50.096;20.082;2023-03-19T00:39:56;99039.80;;;1.40
67822;BMP180;54434;50.096;20.082;2023-03-19T00:42:34;99040.20;;;1.30
67822;BMP180;54434;50.096;20.082;2023-03-19T00:45:13;99038.40;;;1.30
67822;BMP180;54434;50.096;20.082;2023-03-19T00:47:50;99034.20;;;1.20
67822;BMP180;54434;50.096;20.082;2023-03-19T00:50:27;99032.60;;;1.20
67822;BMP180;54434;50.096;20.082;2023-03-19T00:53:04;99033.60;;;1.16
67822;BMP180;54434;50.096;20.082;2023-03-19T00:55:40;99035.00;;;1.10
67822;BMP180;54434;50.096;20.082;2023-03-19T00:58:17;99030.80;;;1.10
67822;BMP180;54434;50.096;20.082;2023-03-19T01:00:56;99026.00;;;1.10
67822;BMP180;54434;50.096;20.082;2023-03-19T01:03:32;99026.60;;;1.08
67822;BMP180;54434;50.096;20.082;2023-03-19T01:06:11;99023.00;;;1.00
67822;BMP180;54434;50.096;20.082;2023-03-19T01:08:48;99018.80;;;1.00
67822;BMP180;54434;50.096;20.082;2023-03-19T01:11:25;99020.20;;;1.00
67822;BMP180;54434;50.096;20.082;2023-03-19T01:14:01;99020.80;;;0.90
67822;BMP180;54434;50.096;20.082;2023-03-19T01:16:38;99016.60;;;0.88
67822;BMP180;54434;50.096;20.082;2023-03-19T01:19:14;99008.60;;;0.80
67822;BMP180;54434;50.096;20.082;2023-03-19T01:21:51;99010.80;;;0.80
67822;BMP180;54434;50.096;20.082;2023-03-19T01:24:33;99007.00;;;0.80
67822;BMP180;54434;50.096;20.082;2023-03-19T01:27:10;99007.40;;;0.74
67822;BMP180;54434;50.096;20.082;2023-03-19T01:29:47;99008.80;;;0.70
67822;BMP180;54434;50.096;20.082;2023-03-19T01:32:32;99008.80;;;0.70
67822;BMP180;54434;50.096;20.082;2023-03-19T01:35:22;99009.40;;;0.70
67822;BMP180;54434;50.096;20.082;2023-03-19T01:37:59;99003.20;;;0.70
67822;BMP180;54434;50.096;20.082;2023-03-19T01:40:42;99011.60;;;0.60
67822;BMP180;54434;50.096;20.082;2023-03-19T01:43:22;99017.60;;;0.60
67822;BMP180;54434;50.096;20.082;2023-03-19T01:46:11;99015.00;;;0.60
67822;BMP180;54434;50.096;20.082;2023-03-19T01:49:05;99010.60;;;0.58
67822;BMP180;54434;50.096;20.082;2023-03-19T01:51:43;99012.20;;;0.50
67822;BMP180;54434;50.096;20.082;2023-03-19T01:55:04;99013.00;;;0.48
67822;BMP180;54434;50.096;20.082;2023-03-19T01:58:31;99021.40;;;0.40
67822;BMP180;54434;50.096;20.082;2023-03-19T02:01:16;99020.00;;;0.40
67822;BMP180;54434;50.096;20.082;2023-03-19T02:03:56;99014.00;;;0.30
67822;BMP180;54434;50.096;20.082;2023-03-19T02:06:38;99017.40;;;0.30
67822;BMP180;54434;50.096;20.082;2023-03-19T02:09:16;99020.40;;;0.20
67822;BMP180;54434;50.096;20.082;2023-03-19T02:11:55;99023.00;;;0.16
67822;BMP180;54434;50.096;20.082;2023-03-19T02:14:32;99022.60;;;0.10
67822;BMP180;54434;50.096;20.082;2023-03-19T02:17:10;99019.20;;;0.02
67822;BMP180;54434;50.096;20.082;2023-03-19T02:19:56;99013.80;;;0.00
67822;BMP180;54434;50.096;20.082;2023-03-19T02:22:34;99012.00;;;-0.02
67822;BMP180;54434;50.096;20.082;2023-03-19T02:25:20;99015.00;;;-0.10
67822;BMP180;54434;50.096;20.082;2023-03-19T02:28:00;99012.20;;;-0.10
67822;BMP180;54434;50.096;20.082;2023-03-19T02:30:38;99014.60;;;-0.10
67822;BMP180;54434;50.096;20.082;2023-03-19T02:33:18;99020.80;;;-0.20
67822;BMP180;54434;50.096;20.082;2023-03-19T02:35:56;99014.20;;;-0.20
67822;BMP180;54434;50.096;20.082;2023-03-19T02:38:36;99016.60;;;-0.22
67822;BMP180;54434;50.096;20.082;2023-03-19T02:41:14;99019.40;;;-0.30
67822;BMP180;54434;50.096;20.082;2023-03-19T02:43:52;99018.80;;;-0.40
67822;BMP180;54434;50.096;20.082;2023-03-19T02:46:29;99020.40;;;-0.40
67822;BMP180;54434;50.096;20.082;2023-03-19T02:49:05;99020.40;;;-0.40
67822;BMP180;54434;50.096;20.082;2023-03-19T02:51:42;99027.20;;;-0.50
67822;BMP180;54434;50.096;20.082;2023-03-19T02:54:18;99024.40;;;-0.50
67822;BMP180;54434;50.096;20.082;2023-03-19T02:56:54;99028.20;;;-0.50
67822;BMP180;54434;50.096;20.082;2023-03-19T02:59:31;99029.00;;;-0.60
67822;BMP180;54434;50.096;20.082;2023-03-19T03:02:08;99041.60;;;-0.60
67822;BMP180;54434;50.096;20.082;2023-03-19T03:04:45;99037.80;;;-0.60
67822;BMP180;54434;50.096;20.082;2023-03-19T03:07:21;99041.00;;;-0.60
67822;BMP180;54434;50.096;20.082;2023-03-19T03:09:58;99036.80;;;-0.60
67822;BMP180;54434;50.096;20.082;2023-03-19T03:12:34;99033.60;;;-0.60
67822;BMP180;54434;50.096;20.082;2023-03-19T03:15:12;99034.80;;;-0.60
67822;BMP180;54434;50.096;20.082;2023-03-19T03:17:48;99029.00;;;-0.60
67822;BMP180;54434;50.096;20.082;2023-03-19T03:20:25;99033.80;;;-0.70
67822;BMP180;54434;50.096;20.082;2023-03-19T03:23:02;99032.80;;;-0.70
67822;BMP180;54434;50.096;20.082;2023-03-19T03:25:38;99027.60;;;-0.70
67822;BMP180;54434;50.096;20.082;2023-03-19T03:28:15;99032.20;;;-0.70
67822;BMP180;54434;50.096;20.082;2023-03-19T03:30:56;99035.40;;;-0.80
67822;BMP180;54434;50.096;20.082;2023-03-19T03:33:33;99038.00;;;-0.80
67822;BMP180;54434;50.096;20.082;2023-03-19T03:36:11;99036.00;;;-0.82
67822;BMP180;54434;50.096;20.082;2023-03-19T03:38:48;99038.00;;;-0.90
67822;BMP180;54434;50.096;20.082;2023-03-19T03:41:25;99036.40;;;-0.90
67822;BMP180;54434;50.096;20.082;2023-03-19T03:44:02;99037.60;;;-0.90
67822;BMP180;54434;50.096;20.082;2023-03-19T03:46:40;99036.40;;;-0.90
67822;BMP180;54434;50.096;20.082;2023-03-19T03:49:17;99032.80;;;-0.90
67822;BMP180;54434;50.096;20.082;2023-03-19T03:51:54;99032.40;;;-0.96
67822;BMP180;54434;50.096;20.082;2023-03-19T03:54:31;99032.00;;;-1.00
67822;BMP180;54434;50.096;20.082;2023-03-19T03:57:08;99036.60;;;-1.00
67822;BMP180;54434;50.096;20.082;2023-03-19T03:59:45;99035.80;;;-1.00
67822;BMP180;54434;50.096;20.082;2023-03-19T04:02:21;99042.40;;;-1.00
67822;BMP180;54434;50.096;20.082;2023-03-19T04:04:59;99042.20;;;-1.00
67822;BMP180;54434;50.096;20.082;2023-03-19T04:07:37;99043.00;;;-1.02
67822;BMP180;54434;50.096;20.082;2023-03-19T04:10:15;99048.00;;;-1.10
67822;BMP180;54434;50.096;20.082;2023-03-19T04:12:52;99054.20;;;-1.10
67822;BMP180;54434;50.096;20.082;2023-03-19T04:15:29;99052.40;;;-1.10
67822;BMP180;54434;50.096;20.082;2023-03-19T04:18:07;99058.40;;;-1.10
67822;BMP180;54434;50.096;20.082;2023-03-19T04:20:43;99060.80;;;-1.10
67822;BMP180;54434;50.096;20.082;2023-03-19T04:23:20;99060.20;;;-1.10
67822;BMP180;54434;50.096;20.082;2023-03-19T04:26:00;99053.80;;;-1.14
67822;BMP180;54434;50.096;20.082;2023-03-19T04:28:37;99054.00;;;-1.20
67822;BMP180;54434;50.096;20.082;2023-03-19T04:31:13;99054.40;;;-1.20
67822;BMP180;54434;50.096;20.082;2023-03-19T04:33:51;99051.80;;;-1.20
67822;BMP180;54434;50.096;20.082;2023-03-19T04:36:28;99052.00;;;-1.20
67822;BMP180;54434;50.096;20.082;2023-03-19T04:39:05;99052.80;;;-1.20
67822;BMP180;54434;50.096;20.082;2023-03-19T04:41:42;99051.00;;;-1.26
67822;BMP180;54434;50.096;20.082;2023-03-19T04:44:41;99044.80;;;-1.30
67822;BMP180;54434;50.096;20.082;2023-03-19T04:47:18;99039.00;;;-1.30
67822;BMP180;54434;50.096;20.082;2023-03-19T04:50:04;99041.60;;;-1.30
67822;BMP180;54434;50.096;20.082;2023-03-19T04:52:42;99033.60;;;-1.30
67822;BMP180;54434;50.096;20.082;2023-03-19T04:55:20;99044.00;;;-1.30
67822;BMP180;54434;50.096;20.082;2023-03-19T04:58:15;99038.80;;;-1.30
67822;BMP180;54434;50.096;20.082;2023-03-19T05:00:56;99038.40;;;-1.30
67822;BMP180;54434;50.096;20.082;2023-03-19T05:03:46;99038.20;;;-1.30
67822;BMP180;54434;50.096;20.082;2023-03-19T05:06:23;99046.80;;;-1.28
67822;BMP180;54434;50.096;20.082;2023-03-19T05:09:01;99047.00;;;-1.20
67822;BMP180;54434;50.096;20.082;2023-03-19T05:11:38;99044.00;;;-1.20
67822;BMP180;54434;50.096;20.082;2023-03-19T05:14:22;99042.60;;;-1.20
67822;BMP180;54434;50.096;20.082;2023-03-19T05:17:07;99041.60;;;-1.10
67822;BMP180;54434;50.096;20.082;2023-03-19T05:19:57;99039.00;;;-1.04
67822;BMP180;54434;50.096;20.082;2023-03-19T05:22:34;99041.40;;;-1.00
67822;BMP180;54434;50.096;20.082;2023-03-19T05:25:12;99044.20;;;-0.90
67822;BMP180;54434;50.096;20.082;2023-03-19T05:27:49;99045.20;;;-0.80
67822;BMP180;54434;50.096;20.082;2023-03-19T05:30:30;99044.80;;;-0.72
67822;BMP180;54434;50.096;20.082;2023-03-19T05:33:07;99042.40;;;-0.68
67822;BMP180;54434;50.096;20.082;2023-03-19T05:35:47;99036.60;;;-0.60
67822;BMP180;54434;50.096;20.082;2023-03-19T05:38:53;99039.00;;;-0.40
67822;BMP180;54434;50.096;20.082;2023-03-19T05:41:33;99040.60;;;-0.02
67822;BMP180;54434;50.096;20.082;2023-03-19T05:44:11;99036.60;;;0.42
67822;BMP180;54434;50.096;20.082;2023-03-19T05:47:30;99032.60;;;1.08
67822;BMP180;54434;50.096;20.082;2023-03-19T05:50:11;99045.80;;;1.68
67822;BMP180;54434;50.096;20.082;2023-03-19T05:52:50;99049.00;;;2.26
67822;BMP180;54434;50.096;20.082;2023-03-19T05:55:26;99048.40;;;3.02
67822;BMP180;54434;50.096;20.082;2023-03-19T05:58:11;99051.00;;;3.84
67822;BMP180;54434;50.096;20.082;2023-03-19T06:00:47;99054.40;;;4.58
67822;BMP180;54434;50.096;20.082;2023-03-19T06:03:25;99054.80;;;5.30
67822;BMP180;54434;50.096;20.082;2023-03-19T06:06:04;99052.00;;;5.84
67822;BMP180;54434;50.096;20.082;2023-03-19T06:08:48;99051.40;;;6.64
67822;BMP180;54434;50.096;20.082;2023-03-19T06:11:28;99050.60;;;7.38
67822;BMP180;54434;50.096;20.082;2023-03-19T06:14:25;99052.40;;;7.98
67822;BMP180;54434;50.096;20.082;2023-03-19T06:17:34;99058.60;;;8.58
67822;BMP180;54434;50.096;20.082;2023-03-19T06:20:16;99058.80;;;9.06
67822;BMP180;54434;50.096;20.082;2023-03-19T06:22:53;99062.20;;;9.72
67822;BMP180;54434;50.096;20.082;2023-03-19T06:25:30;99063.20;;;10.34
67822;BMP180;54434;50.096;20.082;2023-03-19T06:28:06;99064.60;;;10.80
67822;BMP180;54434;50.096;20.082;2023-03-19T06:30:46;99067.20;;;11.38
67822;BMP180;54434;50.096;20.082;2023-03-19T06:33:41;99079.20;;;11.90
67822;BMP180;54434;50.096;20.082;2023-03-19T06:36:19;99086.60;;;12.30
67822;BMP180;54434;50.096;20.082;2023-03-19T06:38:57;99084.20;;;12.58
67822;BMP180;54434;50.096;20.082;2023-03-19T06:41:34;99089.60;;;13.04
67822;BMP180;54434;50.096;20.082;2023-03-19T06:44:21;99095.80;;;13.54
67822;BMP180;54434;50.096;20.082;2023-03-19T06:46:58;99095.40;;;13.82
67822;BMP180;54434;50.096;20.082;2023-03-19T06:49:35;99100.20;;;14.12
67822;BMP180;54434;50.096;20.082;2023-03-19T06:52:13;99103.00;;;14.30
67822;BMP180;54434;50.096;20.082;2023-03-19T06:54:49;99103.40;;;14.50
67822;BMP180;54434;50.096;20.082;2023-03-19T06:57:26;99107.80;;;14.62
67822;BMP180;54434;50.096;20.082;2023-03-19T07:00:03;99109.40;;;14.70
67822;BMP180;54434;50.096;20.082;2023-03-19T07:02:40;99112.80;;;14.90
67822;BMP180;54434;50.096;20.082;2023-03-19T07:05:18;99111.80;;;15.00
67822;BMP180;54434;50.096;20.082;2023-03-19T07:07:55;99116.60;;;15.00
67822;BMP180;54434;50.096;20.082;2023-03-19T07:10:31;99117.20;;;15.00
67822;BMP180;54434;50.096;20.082;2023-03-19T07:13:09;99109.80;;;15.10
67822;BMP180;54434;50.096;20.082;2023-03-19T07:15:47;99105.60;;;15.26
67822;BMP180;54434;50.096;20.082;2023-03-19T07:18:24;99101.80;;;15.40
67822;BMP180;54434;50.096;20.082;2023-03-19T07:21:01;99105.60;;;15.50
67822;BMP180;54434;50.096;20.082;2023-03-19T07:23:38;99102.40;;;15.70
67822;BMP180;54434;50.096;20.082;2023-03-19T07:26:15;99100.80;;;15.80
67822;BMP180;54434;50.096;20.082;2023-03-19T07:28:52;99103.60;;;15.90
67822;BMP180;54434;50.096;20.082;2023-03-19T07:31:29;99107.20;;;16.06
67822;BMP180;54434;50.096;20.082;2023-03-19T07:34:06;99102.40;;;16.02
67822;BMP180;54434;50.096;20.082;2023-03-19T07:36:43;99110.00;;;16.22
67822;BMP180;54434;50.096;20.082;2023-03-19T07:39:20;99109.40;;;16.30
67822;BMP180;54434;50.096;20.082;2023-03-19T07:41:57;99106.20;;;16.40
67822;BMP180;54434;50.096;20.082;2023-03-19T07:44:33;99103.20;;;16.40
67822;BMP180;54434;50.096;20.082;2023-03-19T07:47:11;99097.40;;;16.40
67822;BMP180;54434;50.096;20.082;2023-03-19T07:50:00;99095.60;;;16.50
67822;BMP180;54434;50.096;20.082;2023-03-19T07:52:39;99099.40;;;16.60
67822;BMP180;54434;50.096;20.082;2023-03-19T07:55:19;99101.40;;;16.70
67822;BMP180;54434;50.096;20.082;2023-03-19T07:57:59;99102.40;;;16.80
67822;BMP180;54434;50.096;20.082;2023-03-19T08:00:40;99105.60;;;16.90
67822;BMP180;54434;50.096;20.082;2023-03-19T08:03:28;99107.40;;;16.90
67822;BMP180;54434;50.096;20.082;2023-03-19T08:06:07;99110.20;;;17.00
67822;BMP180;54434;50.096;20.082;2023-03-19T08:08:44;99112.20;;;17.00
67822;BMP180;54434;50.096;20.082;2023-03-19T08:11:22;99106.40;;;17.10
67822;BMP180;54434;50.096;20.082;2023-03-19T08:13:59;99101.60;;;17.18
67822;BMP180;54434;50.096;20.082;2023-03-19T08:16:36;99099.00;;;17.30
67822;BMP180;54434;50.096;20.082;2023-03-19T08:19:14;99094.20;;;17.40
67822;BMP180;54434;50.096;20.082;2023-03-19T08:22:08;99096.00;;;17.50
67822;BMP180;54434;50.096;20.082;2023-03-19T08:24:44;99092.60;;;17.58
67822;BMP180;54434;50.096;20.082;2023-03-19T08:27:21;99093.00;;;17.60
67822;BMP180;54434;50.096;20.082;2023-03-19T08:29:58;99081.80;;;17.70
67822;BMP180;54434;50.096;20.082;2023-03-19T08:32:35;99085.80;;;17.80
67822;BMP180;54434;50.096;20.082;2023-03-19T08:35:17;99085.20;;;17.90
67822;BMP180;54434;50.096;20.082;2023-03-19T08:37:55;99087.20;;;17.80
67822;BMP180;54434;50.096;20.082;2023-03-19T08:40:33;99090.00;;;17.70
67822;BMP180;54434;50.096;20.082;2023-03-19T08:43:12;99082.00;;;17.84
67822;BMP180;54434;50.096;20.082;2023-03-19T08:45:49;99079.80;;;18.10
67822;BMP180;54434;50.096;20.082;2023-03-19T08:48:26;99082.00;;;18.20
67822;BMP180;54434;50.096;20.082;2023-03-19T08:51:04;99084.20;;;18.38
67822;BMP180;54434;50.096;20.082;2023-03-19T08:53:41;99083.80;;;18.34
67822;BMP180;54434;50.096;20.082;2023-03-19T08:56:20;99082.20;;;18.30
67822;BMP180;54434;50.096;20.082;2023-03-19T08:58:58;99077.40;;;18.20
67822;BMP180;54434;50.096;20.082;2023-03-19T09:01:34;99079.80;;;18.20
67822;BMP180;54434;50.096;20.082;2023-03-19T09:04:12;99080.80;;;18.10
67822;BMP180;54434;50.096;20.082;2023-03-19T09:06:49;99084.80;;;18.00
67822;BMP180;54434;50.096;20.082;2023-03-19T09:09:26;99086.60;;;18.00
67822;BMP180;54434;50.096;20.082;2023-03-19T09:12:05;99086.60;;;18.00
67822;BMP180;54434;50.096;20.082;2023-03-19T09:14:42;99088.80;;;18.00
67822;BMP180;54434;50.096;20.082;2023-03-19T09:17:19;99091.00;;;18.08
67822;BMP180;54434;50.096;20.082;2023-03-19T09:19:56;99094.80;;;18.06
67822;BMP180;54434;50.096;20.082;2023-03-19T09:22:33;99096.80;;;18.00
67822;BMP180;54434;50.096;20.082;2023-03-19T09:25:11;99092.80;;;18.02
67822;BMP180;54434;50.096;20.082;2023-03-19T09:27:48;99090.40;;;18.00
67822;BMP180;54434;50.096;20.082;2023-03-19T09:30:25;99083.00;;;17.80
67822;BMP180;54434;50.096;20.082;2023-03-19T09:33:01;99083.00;;;17.70
67822;BMP180;54434;50.096;20.082;2023-03-19T09:35:39;99081.60;;;17.60
67822;BMP180;54434;50.096;20.082;2023-03-19T09:38:16;99077.00;;;17.50
67822;BMP180;54434;50.096;20.082;2023-03-19T09:41:09;99078.20;;;17.50
67822;BMP180;54434;50.096;20.082;2023-03-19T09:44:06;99077.40;;;17.30
67822;BMP180;54434;50.096;20.082;2023-03-19T09:46:51;99073.60;;;17.26
67822;BMP180;54434;50.096;20.082;2023-03-19T09:49:35;99062.60;;;17.12
67822;BMP180;54434;50.096;20.082;2023-03-19T09:52:32;99062.00;;;17.00
67822;BMP180;54434;50.096;20.082;2023-03-19T09:55:29;99054.00;;;16.90
67822;BMP180;54434;50.096;20.082;2023-03-19T09:58:16;99049.60;;;16.70
67822;BMP180;54434;50.096;20.082;2023-03-19T10:00:55;99057.20;;;16.50
67822;BMP180;54434;50.096;20.082;2023-03-19T10:04:02;99057.60;;;16.40
67822;BMP180;54434;50.096;20.082;2023-03-19T10:06:42;99057.60;;;16.20
67822;BMP180;54434;50.096;20.082;2023-03-19T10:09:44;99056.60;;;16.20
67822;BMP180;54434;50.096;20.082;2023-03-19T10:12:46;99056.20;;;16.16
67822;BMP180;54434;50.096;20.082;2023-03-19T10:15:30;99046.00;;;16.10
67822;BMP180;54434;50.096;20.082;2023-03-19T10:18:15;99054.20;;;16.10
67822;BMP180;54434;50.096;20.082;2023-03-19T10:20:56;99049.40;;;16.10
67822;BMP180;54434;50.096;20.082;2023-03-19T10:23:46;99045.00;;;16.00
67822;BMP180;54434;50.096;20.082;2023-03-19T10:26:29;99047.80;;;16.08
67822;BMP180;54434;50.096;20.082;2023-03-19T10:29:13;99046.80;;;16.10
67822;BMP180;54434;50.096;20.082;2023-03-19T10:32:04;99040.20;;;16.28
67822;BMP180;54434;50.096;20.082;2023-03-19T10:34:46;99031.00;;;16.30
67822;BMP180;54434;50.096;20.082;2023-03-19T10:37:27;99030.20;;;16.40
67822;BMP180;54434;50.096;20.082;2023-03-19T10:40:16;99029.80;;;16.40
67822;BMP180;54434;50.096;20.082;2023-03-19T10:43:10;99027.40;;;16.50
67822;BMP180;54434;50.096;20.082;2023-03-19T10:45:48;99020.40;;;16.60
67822;BMP180;54434;50.096;20.082;2023-03-19T10:48:27;99021.60;;;16.70
67822;BMP180;54434;50.096;20.082;2023-03-19T10:51:06;99016.60;;;16.80
67822;BMP180;54434;50.096;20.082;2023-03-19T10:53:43;99009.00;;;16.80
67822;BMP180;54434;50.096;20.082;2023-03-19T10:56:26;99006.20;;;16.70
67822;BMP180;54434;50.096;20.082;2023-03-19T10:59:18;99005.20;;;16.58
67822;BMP180;54434;50.096;20.082;2023-03-19T11:02:06;98999.40;;;16.40
67822;BMP180;54434;50.096;20.082;2023-03-19T11:04:49;98995.20;;;16.30
67822;BMP180;54434;50.096;20.082;2023-03-19T11:07:42;98994.40;;;16.20
67822;BMP180;54434;50.096;20.082;2023-03-19T11:10:20;98990.60;;;16.20
67822;BMP180;54434;50.096;20.082;2023-03-19T11:13:02;98997.40;;;16.10
67822;BMP180;54434;50.096;20.082;2023-03-19T11:15:40;98986.80;;;16.00
67822;BMP180;54434;50.096;20.082;2023-03-19T11:18:26;98986.20;;;15.90
67822;BMP180;54434;50.096;20.082;2023-03-19T11:21:21;98990.60;;;15.80
67822;BMP180;54434;50.096;20.082;2023-03-19T11:24:04;98988.60;;;15.70
67822;BMP180;54434;50.096;20.082;2023-03-19T11:26:57;98987.40;;;15.66
67822;BMP180;54434;50.096;20.082;2023-03-19T11:29:40;98990.20;;;15.60
67822;BMP180;54434;50.096;20.082;2023-03-19T11:32:52;98986.00;;;15.60
67822;BMP180;54434;50.096;20.082;2023-03-19T11:35:36;98975.60;;;15.50
67822;BMP180;54434;50.096;20.082;2023-03-19T11:38:22;98973.60;;;15.50
67822;BMP180;54434;50.096;20.082;2023-03-19T11:41:11;98972.80;;;15.50
67822;BMP180;54434;50.096;20.082;2023-03-19T11:44:02;98962.00;;;15.60
67822;BMP180;54434;50.096;20.082;2023-03-19T11:46:58;98959.40;;;15.60
67822;BMP180;54434;50.096;20.082;2023-03-19T11:50:03;98962.40;;;15.60
67822;BMP180;54434;50.096;20.082;2023-03-19T11:53:12;98959.20;;;15.60
67822;BMP180;54434;50.096;20.082;2023-03-19T11:56:04;98956.20;;;15.60
67822;BMP180;54434;50.096;20.082;2023-03-19T11:59:07;98943.80;;;15.50
67822;BMP180;54434;50.096;20.082;2023-03-19T12:02:22;98937.40;;;15.50
67822;BMP180;54434;50.096;20.082;2023-03-19T12:05:23;98934.00;;;15.56
67822;BMP180;54434;50.096;20.082;2023-03-19T12:08:21;98928.00;;;15.60
67822;BMP180;54434;50.096;20.082;2023-03-19T12:11:22;98938.80;;;15.66
67822;BMP180;54434;50.096;20.082;2023-03-19T12:14:21;98939.00;;;15.70
67822;BMP180;54434;50.096;20.082;2023-03-19T12:17:28;98941.80;;;15.70
67822;BMP180;54434;50.096;20.082;2023-03-19T12:20:29;98941.40;;;15.60
67822;BMP180;54434;50.096;20.082;2023-03-19T12:23:35;98942.20;;;15.60
67822;BMP180;54434;50.096;20.082;2023-03-19T12:26:23;98933.40;;;15.60
67822;BMP180;54434;50.096;20.082;2023-03-19T12:29:15;98928.40;;;15.60
67822;BMP180;54434;50.096;20.082;2023-03-19T12:32:29;98924.60;;;15.50
67822;BMP180;54434;50.096;20.082;2023-03-19T12:35:15;98924.80;;;15.50
67822;BMP180;54434;50.096;20.082;2023-03-19T12:38:01;98918.60;;;15.40
67822;BMP180;54434;50.096;20.082;2023-03-19T12:40:46;98916.00;;;15.40
67822;BMP180;54434;50.096;20.082;2023-03-19T12:43:31;98912.40;;;15.30
67822;BMP180;54434;50.096;20.082;2023-03-19T12:46:15;98906.00;;;15.30
67822;BMP180;54434;50.096;20.082;2023-03-19T12:49:07;98903.00;;;15.40
67822;BMP180;54434;50.096;20.082;2023-03-19T12:51:56;98897.60;;;15.30
67822;BMP180;54434;50.096;20.082;2023-03-19T12:54:40;98892.60;;;15.30
67822;BMP180;54434;50.096;20.082;2023-03-19T12:57:24;98891.40;;;15.30
67822;BMP180;54434;50.096;20.082;2023-03-19T13:00:14;98889.00;;;15.30
67822;BMP180;54434;50.096;20.082;2023-03-19T13:02:59;98886.20;;;15.30
67822;BMP180;54434;50.096;20.082;2023-03-19T13:05:46;98884.40;;;15.20
67822;BMP180;54434;50.096;20.082;2023-03-19T13:08:34;98881.00;;;15.28
67822;BMP180;54434;50.096;20.082;2023-03-19T13:11:34;98883.80;;;15.30
67822;BMP180;54434;50.096;20.082;2023-03-19T13:14:20;98878.00;;;15.40
67822;BMP180;54434;50.096;20.082;2023-03-19T13:17:11;98879.00;;;15.46
67822;BMP180;54434;50.096;20.082;2023-03-19T13:19:53;98881.60;;;15.50
67822;BMP180;54434;50.096;20.082;2023-03-19T13:22:36;98874.60;;;15.58
67822;BMP180;54434;50.096;20.082;2023-03-19T13:25:19;98878.80;;;15.60
67822;BMP180;54434;50.096;20.082;2023-03-19T13:27:58;98874.20;;;15.50
67822;BMP180;54434;50.096;20.082;2023-03-19T13:30:34;98871.00;;;15.50
67822;BMP180;54434;50.096;20.082;2023-03-19T13:33:27;98871.00;;;15.44
67822;BMP180;54434;50.096;20.082;2023-03-19T13:36:13;98873.20;;;15.40
67822;BMP180;54434;50.096;20.082;2023-03-19T13:38:52;98871.60;;;15.40
67822;BMP180;54434;50.096;20.082;2023-03-19T13:42:10;98873.20;;;15.40
67822;BMP180;54434;50.096;20.082;2023-03-19T13:45:35;98862.80;;;15.30
67822;BMP180;54434;50.096;20.082;2023-03-19T13:48:39;98865.20;;;15.30
67822;BMP180;54434;50.096;20.082;2023-03-19T13:51:30;98860.00;;;15.30
67822;BMP180;54434;50.096;20.082;2023-03-19T13:54:19;98861.80;;;15.30
67822;BMP180;54434;50.096;20.082;2023-03-19T13:57:41;98861.40;;;15.30
67822;BMP180;54434;50.096;20.082;2023-03-19T14:01:02;98856.80;;;15.30
67822;BMP180;54434;50.096;20.082;2023-03-19T14:03:52;98856.00;;;15.40
67822;BMP180;54434;50.096;20.082;2023-03-19T14:06:40;98852.80;;;15.44
67822;BMP180;54434;50.096;20.082;2023-03-19T14:09:44;98846.80;;;15.52
67822;BMP180;54434;50.096;20.082;2023-03-19T14:12:34;98851.00;;;15.60
67822;BMP180;54434;50.096;20.082;2023-03-19T14:15:24;98849.20;;;15.60
67822;BMP180;54434;50.096;20.082;2023-03-19T14:18:09;98844.20;;;15.60
67822;BMP180;54434;50.096;20.082;2023-03-19T14:20:58;98847.80;;;15.60
67822;BMP180;54434;50.096;20.082;2023-03-19T14:23:53;98843.80;;;15.60
67822;BMP180;54434;50.096;20.082;2023-03-19T14:26:31;98841.60;;;15.60
67822;BMP180;54434;50.096;20.082;2023-03-19T14:29:13;98842.40;;;15.50
67822;BMP180;54434;50.096;20.082;2023-03-19T14:31:53;98841.20;;;15.40
67822;BMP180;54434;50.096;20.082;2023-03-19T14:34:35;98849.20;;;15.40
67822;BMP180;54434;50.096;20.082;2023-03-19T14:37:23;98843.20;;;15.30
67822;BMP180;54434;50.096;20.082;2023-03-19T14:40:13;98842.00;;;15.30
67822;BMP180;54434;50.096;20.082;2023-03-19T14:43:04;98842.80;;;15.20
67822;BMP180;54434;50.096;20.082;2023-03-19T14:45:59;98838.80;;;15.20
67822;BMP180;54434;50.096;20.082;2023-03-19T14:49:35;98845.60;;;15.10
67822;BMP180;54434;50.096;20.082;2023-03-19T14:52:17;98848.80;;;15.00
67822;BMP180;54434;50.096;20.082;2023-03-19T14:54:59;98847.40;;;15.00
67822;BMP180;54434;50.096;20.082;2023-03-19T14:57:36;98843.60;;;14.90
67822;BMP180;54434;50.096;20.082;2023-03-19T15:00:20;98844.20;;;14.90
67822;BMP180;54434;50.096;20.082;2023-03-19T15:02:58;98838.00;;;14.80
67822;BMP180;54434;50.096;20.082;2023-03-19T15:05:36;98841.80;;;14.80
67822;BMP180;54434;50.096;20.082;2023-03-19T15:08:18;98843.60;;;14.80
67822;BMP180;54434;50.096;20.082;2023-03-19T15:11:14;98841.60;;;14.70
67822;BMP180;54434;50.096;20.082;2023-03-19T15:14:30;98844.80;;;14.60
67822;BMP180;54434;50.096;20.082;2023-03-19T15:17:20;98839.20;;;14.60
67822;BMP180;54434;50.096;20.082;2023-03-19T15:20:02;98838.60;;;14.50
67822;BMP180;54434;50.096;20.082;2023-03-19T15:22:39;98841.60;;;14.50
67822;BMP180;54434;50.096;20.082;2023-03-19T15:25:17;98839.40;;;14.50
67822;BMP180;54434;50.096;20.082;2023-03-19T15:28:11;98841.60;;;14.40
67822;BMP180;54434;50.096;20.082;2023-03-19T15:30:58;98839.40;;;14.40